Time;durP1;ratioP1;P1;durP2;ratioP2;P2;SDS_P1;SDS_P2;PMS_P1;PMS_P2;Temp;Humidity;BMP_temperature;BMP_pressure;BME280_temperature;BME280_humidity;BME280_pressure;Samples;Min_cycle;Max_cycle;Signal;HPM_P1;HPM_P2
2021/05/28 00:01:28;;;;;;;25.27;19.00;;;;;;;12.31;71.14;101594.78;5040575;28;20206;-65
2021/05/28 00:03:54;;;;;;;9.23;8.40;;;;;;;12.09;72.07;101596.19;5048869;28;20182;-64
2021/05/28 00:06:19;;;;;;;10.10;9.10;;;;;;;12.33;71.43;101592.22;5061073;28;20612;-64
2021/05/28 00:08:44;;;;;;;9.67;7.47;;;;;;;12.15;72.08;101596.28;5060650;28;20181;-65
2021/05/28 00:11:10;;;;;;;9.67;8.13;;;;;;;12.59;70.60;101600.47;5060511;28;20174;-65
2021/05/28 00:13:35;;;;;;;11.10;8.57;;;;;;;12.35;71.74;101607.06;5060831;28;20447;-64
2021/05/28 00:16:02;;;;;;;12.07;9.03;;;;;;;12.70;70.55;101606.72;5060325;28;20227;-64
2021/05/28 00:18:27;;;;;;;9.97;7.80;;;;;;;12.42;71.19;101610.66;5057898;28;20196;-64
2021/05/28 00:20:52;;;;;;;7.93;7.13;;;;;;;12.40;70.68;101615.84;5060633;28;20412;-64
2021/05/28 00:23:18;;;;;;;10.20;8.40;;;;;;;12.48;70.86;101615.13;5060122;28;20177;-65
2021/05/28 00:25:43;;;;;;;10.60;8.30;;;;;;;12.51;70.75;101616.03;5060276;28;20502;-65
2021/05/28 00:28:08;;;;;;;9.40;8.50;;;;;;;12.08;71.96;101615.31;5060728;28;20177;-64
2021/05/28 00:30:34;;;;;;;10.57;8.63;;;;;;;12.20;72.12;101620.75;5058139;28;20178;-65
2021/05/28 00:32:59;;;;;;;12.90;8.70;;;;;;;12.36;71.75;101616.66;5060087;28;20537;-64
2021/05/28 00:35:24;;;;;;;11.23;9.50;;;;;;;12.24;71.26;101621.69;5060442;28;20175;-64
2021/05/28 00:37:49;;;;;;;11.23;8.73;;;;;;;12.08;72.03;101615.31;5057430;28;20182;-64
2021/05/28 00:40:16;;;;;;;12.27;10.00;;;;;;;11.92;72.70;101624.56;5079193;28;20164;-65
2021/05/28 00:42:42;;;;;;;13.57;10.10;;;;;;;12.00;72.41;101625.66;5079536;28;20173;-66
2021/05/28 00:45:08;;;;;;;12.20;11.00;;;;;;;11.82;72.87;101636.59;5068371;28;20467;-65
2021/05/28 00:47:34;;;;;;;13.20;10.60;;;;;;;11.91;72.68;101631.56;5038835;28;20522;-64
2021/05/28 00:49:59;;;;;;;14.27;11.93;;;;;;;12.05;72.33;101631.81;5039933;28;20532;-64
2021/05/28 00:52:24;;;;;;;15.17;11.93;;;;;;;11.91;72.38;101635.91;5039634;28;20420;-64
2021/05/28 00:54:50;;;;;;;16.10;12.20;;;;;;;11.76;73.57;101639.97;5039763;28;20174;-64
2021/05/28 00:57:16;;;;;;;13.53;11.47;;;;;;;11.84;72.67;101636.63;5040263;28;20193;-64
2021/05/28 00:59:43;;;;;;;14.17;10.73;;;;;;;11.74;72.78;101643.41;5039134;28;20429;-64
2021/05/28 01:02:08;;;;;;;20.83;12.33;;;;;;;11.80;72.84;101646.16;5039447;28;20544;-64
2021/05/28 01:04:33;;;;;;;15.53;11.97;;;;;;;11.61;73.42;101651.00;5040060;28;20424;-64
2021/05/28 01:06:59;;;;;;;15.30;11.80;;;;;;;11.70;72.34;101650.28;5039482;28;20221;-65
2021/05/28 01:09:24;;;;;;;16.73;13.17;;;;;;;11.55;73.17;101656.09;5039469;28;20440;-65
2021/05/28 01:11:50;;;;;;;13.90;11.30;;;;;;;11.63;73.02;101659.75;5043139;28;20185;-64
2021/05/28 01:14:16;;;;;;;13.87;11.00;;;;;;;11.52;72.86;101670.84;5059230;28;20209;-65
2021/05/28 01:16:42;;;;;;;16.00;11.53;;;;;;;11.58;73.07;101673.56;5059439;28;20177;-64
2021/05/28 01:19:07;;;;;;;12.63;11.33;;;;;;;11.77;71.93;101673.09;5059542;28;20412;-65
2021/05/28 01:21:32;;;;;;;16.40;12.40;;;;;;;11.68;72.84;101678.13;5058462;28;20542;-66
2021/05/28 01:23:58;;;;;;;16.07;12.70;;;;;;;11.46;72.98;101671.59;5050804;28;20281;-65
2021/05/28 01:26:23;;;;;;;14.67;11.90;;;;;;;11.52;72.95;101678.69;5047227;28;20380;-65
2021/05/28 01:28:49;;;;;;;18.10;12.07;;;;;;;11.46;72.81;101680.31;5039148;28;20197;-65
2021/05/28 01:31:14;;;;;;;14.20;11.60;;;;;;;11.64;71.83;101681.53;5044427;28;20204;-64
2021/05/28 01:33:42;;;;;;;12.97;10.60;;;;;;;11.50;72.31;101681.25;5053899;28;20265;-65
2021/05/28 01:36:07;;;;;;;17.10;11.57;;;;;;;11.21;72.30;101685.84;5038788;28;20309;-64
2021/05/28 01:38:33;;;;;;;15.10;11.27;;;;;;;11.36;72.26;101678.34;5039117;28;20757;-65
2021/05/28 01:40:58;;;;;;;11.73;10.53;;;;;;;11.45;72.30;101681.16;5042609;28;20231;-65
2021/05/28 01:43:23;;;;;;;11.73;10.23;;;;;;;11.45;71.99;101678.53;5058162;28;20185;-65
2021/05/28 01:45:49;;;;;;;17.73;11.50;;;;;;;11.09;72.66;101684.69;5058795;28;20209;-65
2021/05/28 01:48:14;;;;;;;12.80;9.93;;;;;;;11.07;72.75;101688.16;5058996;28;20490;-65
2021/05/28 01:50:46;;;;;;;13.60;9.40;;;;;;;11.49;71.99;101683.81;5057544;28;20555;-65
2021/05/28 01:53:17;;;;;;;14.97;10.87;;;;;;;10.90;72.66;101687.75;5057145;28;20173;-65
2021/05/28 01:55:43;;;;;;;10.60;9.50;;;;;;;11.24;71.92;101699.84;5038876;28;20741;-65
2021/05/28 01:58:10;;;;;;;11.73;9.43;;;;;;;11.02;71.90;101708.03;5037964;28;20431;-65
2021/05/28 02:00:36;;;;;;;17.17;10.83;;;;;;;11.07;72.29;101707.28;5039521;28;20441;-64
2021/05/28 02:03:01;;;;;;;12.20;10.43;;;;;;;11.07;71.79;101706.41;5039745;28;20510;-65
2021/05/28 02:05:27;;;;;;;19.40;11.70;;;;;;;11.14;71.66;101702.22;5037943;28;20275;-65
2021/05/28 02:07:52;;;;;;;14.37;11.23;;;;;;;11.23;71.38;101707.63;5038327;28;20450;-65
2021/05/28 02:10:17;;;;;;;12.23;10.60;;;;;;;10.90;72.11;101714.69;5054382;28;20520;-65
2021/05/28 02:12:43;;;;;;;11.90;9.97;;;;;;;10.93;72.16;101711.28;5037707;28;20194;-65
2021/05/28 02:15:09;;;;;;;12.57;11.27;;;;;;;11.02;72.58;101703.69;5037964;28;20188;-65
2021/05/28 02:17:34;;;;;;;14.17;11.40;;;;;;;11.11;71.29;101708.25;5038924;28;20555;-64
2021/05/28 02:19:59;;;;;;;12.10;10.10;;;;;;;10.75;72.38;101716.94;5038391;28;20436;-64
2021/05/28 02:22:25;;;;;;;14.50;11.63;;;;;;;10.98;71.96;101717.50;5051827;28;20569;-65
2021/05/28 02:24:50;;;;;;;14.77;10.50;;;;;;;10.61;72.52;101711.41;5040091;28;20270;-64
2021/05/28 02:27:16;;;;;;;12.10;10.90;;;;;;;10.61;72.81;101720.09;5038139;28;20202;-64
2021/05/28 02:29:41;;;;;;;12.40;10.60;;;;;;;11.03;71.49;101723.72;5038240;28;20261;-63
2021/05/28 02:32:07;;;;;;;15.07;10.40;;;;;;;10.86;72.19;101730.25;5049227;28;20314;-64
2021/05/28 02:34:32;;;;;;;14.60;10.57;;;;;;;10.91;71.80;101728.66;5058217;28;20173;-64
2021/05/28 02:36:57;;;;;;;14.60;10.00;;;;;;;11.00;71.17;101734.09;5057572;28;20191;-64
2021/05/28 02:39:22;;;;;;;17.87;10.27;;;;;;;10.37;72.70;101725.56;5040957;28;20209;-65
2021/05/28 02:41:48;;;;;;;14.27;11.20;;;;;;;10.83;71.85;101732.81;5039319;28;20190;-64
2021/05/28 02:44:13;;;;;;;13.57;10.87;;;;;;;10.48;73.01;101738.00;5042648;28;20176;-63
2021/05/28 02:46:38;;;;;;;14.03;10.63;;;;;;;10.23;73.34;101740.81;5041748;28;20221;-63
2021/05/28 02:49:04;;;;;;;16.07;11.57;;;;;;;10.42;72.90;101747.41;5041402;28;20182;-64
2021/05/28 02:51:29;;;;;;;13.23;11.37;;;;;;;10.49;72.00;101750.22;5041832;28;20445;-63
2021/05/28 02:53:54;;;;;;;14.63;11.53;;;;;;;10.51;71.67;101749.38;5042303;28;20213;-65
2021/05/28 02:56:19;;;;;;;14.43;11.20;;;;;;;10.49;72.15;101755.41;5047831;28;20278;-64
2021/05/28 02:58:45;;;;;;;18.80;11.40;;;;;;;10.30;71.88;101749.66;5062443;28;20174;-64
2021/05/28 03:01:10;;;;;;;14.20;10.47;;;;;;;10.72;70.95;101762.09;5060563;28;20563;-64
2021/05/28 03:03:35;;;;;;;12.00;10.23;;;;;;;10.86;70.26;101752.00;5061890;28;20169;-64
2021/05/28 03:06:01;;;;;;;12.37;10.27;;;;;;;10.56;71.35;101762.53;5055976;28;20197;-64
2021/05/28 03:08:26;;;;;;;13.03;9.77;;;;;;;10.83;70.28;101774.53;5060607;28;20196;-65
2021/05/28 03:10:52;;;;;;;14.50;9.60;;;;;;;10.70;70.34;101773.31;5060308;28;20494;-65
2021/05/28 03:13:18;;;;;;;12.13;9.67;;;;;;;11.01;69.53;101774.09;5060841;28;20562;-65
2021/05/28 03:15:43;;;;;;;14.00;10.00;;;;;;;10.68;69.72;101783.72;5060497;28;20447;-65
2021/05/28 03:18:19;;;;;;;9.73;8.47;;;;;;;10.56;70.52;101783.41;5061591;28;20192;-66
2021/05/28 03:21:15;;;;;;;10.03;8.10;;;;;;;10.87;69.33;101785.06;5061604;28;20211;-65
2021/05/28 03:23:40;;;;;;;9.00;8.10;;;;;;;10.81;69.68;101779.72;5041575;28;20486;-64
2021/05/28 03:26:06;;;;;;;8.80;7.80;;;;;;;11.29;68.23;101778.25;5041128;28;20893;-64
2021/05/28 03:28:31;;;;;;;8.87;7.70;;;;;;;11.16;68.34;101782.28;5041350;28;20178;-64
2021/05/28 03:30:58;;;;;;;9.67;8.33;;;;;;;11.41;68.19;101780.28;5041622;28;20548;-65
2021/05/28 03:33:23;;;;;;;8.93;7.50;;;;;;;11.49;67.06;101788.25;5058799;28;20189;-65
2021/05/28 03:35:48;;;;;;;10.33;9.07;;;;;;;11.79;67.36;101791.56;5058246;28;20407;-64
2021/05/28 03:38:14;;;;;;;10.67;8.30;;;;;;;11.51;67.21;101797.91;5041594;28;20186;-65
2021/05/28 03:40:41;;;;;;;8.00;7.20;;;;;;;11.37;67.78;101794.97;5041105;28;20265;-64
2021/05/28 03:43:06;;;;;;;13.90;8.10;;;;;;;11.52;68.34;101796.19;5055981;28;20562;-64
2021/05/28 03:45:32;;;;;;;10.97;8.50;;;;;;;11.88;67.42;101797.81;5061361;28;20440;-64
2021/05/28 03:47:57;;;;;;;9.00;7.57;;;;;;;11.48;67.31;101797.84;5059812;28;20204;-64
2021/05/28 03:50:22;;;;;;;9.03;8.13;;;;;;;11.63;67.90;101794.69;5054246;28;20190;-65
2021/05/28 03:52:47;;;;;;;9.33;8.40;;;;;;;11.93;66.80;101785.75;5052917;28;20472;-65
2021/05/28 03:55:13;;;;;;;9.37;7.37;;;;;;;12.19;65.94;101786.31;5060870;28;20558;-65
2021/05/28 03:57:38;;;;;;;9.20;7.60;;;;;;;12.19;65.53;101783.72;5044125;28;20190;-66
2021/05/28 04:00:04;;;;;;;10.60;7.37;;;;;;;12.49;65.83;101790.38;5041352;28;20167;-65
2021/05/28 04:02:30;;;;;;;13.93;7.37;;;;;;;13.16;62.84;101786.28;5040945;28;20548;-64
2021/05/28 04:04:55;;;;;;;10.40;7.50;;;;;;;12.80;63.38;101781.34;5040623;28;20438;-63
2021/05/28 04:07:20;;;;;;;7.50;6.80;;;;;;;13.27;62.69;101785.59;5053210;28;20551;-64
2021/05/28 04:09:46;;;;;;;8.13;6.70;;;;;;;14.08;59.59;101784.06;5060608;28;20181;-64
2021/05/28 04:12:11;;;;;;;7.97;6.47;;;;;;;14.10;58.98;101782.38;5057733;28;20551;-64
2021/05/28 04:14:36;;;;;;;8.07;6.27;;;;;;;13.54;61.34;101779.00;5060163;28;20169;-64
2021/05/28 04:17:01;;;;;;;7.80;7.00;;;;;;;13.11;62.73;101787.09;5059325;28;20189;-65
2021/05/28 04:19:27;;;;;;;7.70;7.00;;;;;;;13.46;61.80;101781.53;5058695;28;20186;-65
2021/05/28 04:21:52;;;;;;;7.13;6.40;;;;;;;14.25;60.03;101785.16;5059085;28;20186;-65
2021/05/28 04:24:18;;;;;;;6.27;5.63;;;;;;;15.33;55.98;101787.91;5059866;28;20242;-65
2021/05/28 04:26:43;;;;;;;6.13;5.53;;;;;;;16.64;52.32;101772.66;5055800;28;20210;-65
2021/05/28 04:29:08;;;;;;;7.83;5.60;;;;;;;17.45;50.72;101777.91;5049855;28;20186;-66
2021/05/28 04:31:34;;;;;;;13.80;6.60;;;;;;;16.88;51.46;101767.41;5043489;28;20186;-65
2021/05/28 04:33:59;;;;;;;9.37;5.63;;;;;;;17.47;49.83;101776.16;5040194;28;20189;-65
2021/05/28 04:36:24;;;;;;;7.70;5.37;;;;;;;16.38;52.32;101777.88;5041260;28;20462;-65
2021/05/28 04:38:49;;;;;;;7.10;5.47;;;;;;;16.02;54.02;101782.16;5059866;28;20208;-65
2021/05/28 04:41:15;;;;;;;6.50;5.90;;;;;;;15.01;57.54;101780.66;5045027;28;20466;-65
2021/05/28 04:43:40;;;;;;;9.30;6.17;;;;;;;15.41;57.28;101780.06;5040263;28;20167;-65
2021/05/28 04:46:05;;;;;;;6.37;5.20;;;;;;;16.22;54.23;101771.69;5039661;28;20220;-65
2021/05/28 04:48:31;;;;;;;8.40;5.83;;;;;;;17.01;52.65;101777.09;5039411;28;20185;-65
2021/05/28 04:50:56;;;;;;;7.93;5.53;;;;;;;16.54;53.11;101780.53;5054974;28;20185;-65
2021/05/28 04:53:21;;;;;;;8.93;5.60;;;;;;;16.29;54.64;101777.84;5059692;28;20581;-65
2021/05/28 04:55:47;;;;;;;7.50;5.83;;;;;;;17.20;52.39;101780.59;5059747;28;20209;-65
2021/05/28 04:58:12;;;;;;;10.80;5.83;;;;;;;17.62;50.95;101781.38;5044810;28;20189;-66
2021/05/28 05:00:37;;;;;;;8.07;5.83;;;;;;;18.25;49.37;101796.09;5039555;28;20534;-65
2021/05/28 05:03:03;;;;;;;6.50;5.80;;;;;;;16.94;53.44;101789.38;5039506;28;20456;-66
2021/05/28 05:05:28;;;;;;;8.77;6.40;;;;;;;16.55;54.61;101790.16;5038780;28;20560;-65
2021/05/28 05:07:53;;;;;;;11.90;7.43;;;;;;;16.69;54.19;101793.72;5039390;28;20614;-65
2021/05/28 05:10:19;;;;;;;7.30;6.50;;;;;;;16.27;55.60;101795.41;5039385;28;20180;-65
2021/05/28 05:12:44;;;;;;;10.87;7.00;;;;;;;15.29;58.46;101812.41;5039491;28;20189;-65
2021/05/28 05:15:11;;;;;;;8.70;7.80;;;;;;;14.88;60.03;101810.31;5039232;28;20543;-66
2021/05/28 05:17:36;;;;;;;8.17;7.23;;;;;;;15.14;59.84;101805.25;5041842;28;20186;-65
2021/05/28 05:20:03;;;;;;;8.73;7.30;;;;;;;14.12;63.47;101815.59;5059658;28;20415;-65
2021/05/28 05:22:28;;;;;;;9.00;6.97;;;;;;;14.26;63.27;101820.13;5058932;28;20327;-65
2021/05/28 05:24:53;;;;;;;8.00;7.20;;;;;;;14.07;63.80;101830.41;5045777;28;20558;-65
2021/05/28 05:27:19;;;;;;;11.83;8.30;;;;;;;14.55;62.34;101823.06;5056111;28;20504;-65
2021/05/28 05:29:44;;;;;;;8.63;7.83;;;;;;;14.00;63.12;101828.53;5058923;28;20184;-67
2021/05/28 05:32:10;;;;;;;14.77;8.10;;;;;;;13.95;63.67;101830.22;5044337;28;20193;-65
2021/05/28 05:34:35;;;;;;;8.90;8.00;;;;;;;13.37;65.88;101831.16;5048343;28;20185;-66
2021/05/28 05:37:02;;;;;;;13.10;9.07;;;;;;;13.74;65.09;101833.44;5042854;28;20186;-64
2021/05/28 05:39:28;;;;;;;10.67;8.47;;;;;;;13.41;65.50;101842.53;5040544;28;20205;-65
2021/05/28 05:41:54;;;;;;;16.20;9.13;;;;;;;13.23;65.17;101843.13;5057538;28;20414;-65
2021/05/28 05:44:19;;;;;;;13.50;11.00;;;;;;;13.56;64.57;101847.19;5058634;28;20386;-66
2021/05/28 05:46:45;;;;;;;9.30;8.40;;;;;;;13.05;65.80;101848.94;5058454;28;20479;-65
2021/05/28 05:49:10;;;;;;;13.83;8.53;;;;;;;12.96;65.97;101860.09;5056336;28;20291;-65
2021/05/28 05:51:36;;;;;;;11.80;8.50;;;;;;;13.18;65.02;101852.63;5058259;28;20181;-65
2021/05/28 05:54:01;;;;;;;9.67;8.30;;;;;;;12.89;65.67;101859.13;5058748;28;20173;-65
2021/05/28 05:56:27;;;;;;;8.90;7.93;;;;;;;13.16;64.98;101867.44;5058815;28;20172;-65
2021/05/28 05:58:52;;;;;;;12.57;8.17;;;;;;;13.54;64.02;101867.22;5052450;28;20187;-66
2021/05/28 06:01:17;;;;;;;13.50;9.13;;;;;;;13.26;63.64;101866.72;5046664;28;20558;-65
2021/05/28 06:03:42;;;;;;;11.23;8.70;;;;;;;13.21;63.91;101873.66;5057847;28;20178;-66
2021/05/28 06:06:08;;;;;;;10.33;9.00;;;;;;;13.25;63.75;101867.59;5058094;28;20197;-65
2021/05/28 06:08:33;;;;;;;12.27;8.80;;;;;;;13.60;63.48;101870.81;5058158;28;20182;-65
2021/05/28 06:10:59;;;;;;;13.17;8.87;;;;;;;13.38;63.54;101879.19;5056255;28;20185;-66
2021/05/28 06:13:24;;;;;;;13.63;11.50;;;;;;;13.18;63.87;101878.81;5058216;28;20205;-65
2021/05/28 06:15:50;;;;;;;10.50;8.53;;;;;;;12.86;64.66;101881.75;5057683;28;20178;-64
2021/05/28 06:18:16;;;;;;;14.37;10.00;;;;;;;13.08;65.29;101876.06;5057654;28;20614;-66
2021/05/28 06:20:41;;;;;;;9.40;8.40;;;;;;;13.28;64.35;101875.50;5050881;28;20735;-65
2021/05/28 06:23:07;;;;;;;7.53;6.53;;;;;;;13.07;63.99;101873.38;5062580;28;21162;-65
2021/05/28 06:25:32;;;;;;;7.50;6.80;;;;;;;13.35;62.59;101879.09;5041673;28;20245;-65
2021/05/28 06:27:59;;;;;;;8.33;7.20;;;;;;;13.46;62.16;101875.84;5042592;28;20198;-67
2021/05/28 06:30:24;;;;;;;8.77;6.70;;;;;;;13.43;62.00;101888.88;5076983;28;20467;-65
2021/05/28 06:32:49;;;;;;;10.37;8.60;;;;;;;13.70;62.39;101889.28;5044137;28;20463;-64
2021/05/28 06:35:15;;;;;;;11.50;8.10;;;;;;;13.04;63.45;101884.69;5042989;28;20265;-65
2021/05/28 06:37:41;;;;;;;7.70;7.00;;;;;;;13.47;62.61;101887.19;5049667;28;20170;-65
2021/05/28 06:40:07;;;;;;;9.93;7.27;;;;;;;13.73;61.03;101882.34;5041714;28;20495;-65
2021/05/28 06:42:33;;;;;;;8.77;7.50;;;;;;;13.39;62.06;101880.94;5042536;28;20501;-66
2021/05/28 06:44:59;;;;;;;12.30;8.17;;;;;;;13.28;63.47;101878.13;5045957;28;20414;-66
2021/05/28 06:47:25;;;;;;;10.00;7.60;;;;;;;13.31;62.68;101888.63;5055006;28;20470;-64
2021/05/28 06:49:51;;;;;;;12.23;7.90;;;;;;;13.41;62.94;101893.22;5057175;28;20253;-64
2021/05/28 06:52:16;;;;;;;11.80;8.53;;;;;;;13.14;63.40;101897.09;5057478;28;20516;-66
2021/05/28 06:54:41;;;;;;;12.70;8.57;;;;;;;13.16;64.53;101893.63;5068288;28;20180;-65
2021/05/28 06:57:07;;;;;;;13.10;8.90;;;;;;;12.87;65.54;101901.84;5037118;28;20201;-66
2021/05/28 06:59:32;;;;;;;11.67;9.67;;;;;;;12.78;65.30;101903.41;5037651;28;20174;-66
2021/05/28 07:01:57;;;;;;;12.97;9.67;;;;;;;12.81;65.45;101910.44;5037478;28;20253;-65
2021/05/28 07:04:23;;;;;;;10.13;9.07;;;;;;;12.73;64.99;101918.16;5037427;28;20179;-65
2021/05/28 07:06:48;;;;;;;12.10;8.70;;;;;;;13.32;63.67;101913.97;5039507;28;20209;-64
2021/05/28 07:09:14;;;;;;;9.40;8.40;;;;;;;12.98;64.98;101919.50;5037456;28;20978;-65
2021/05/28 07:11:39;;;;;;;9.23;7.80;;;;;;;12.88;64.17;101925.41;5036635;28;20201;-65
2021/05/28 07:14:04;;;;;;;13.57;9.47;;;;;;;12.55;66.38;101928.25;5037054;28;20229;-65
2021/05/28 07:16:30;;;;;;;11.23;8.83;;;;;;;12.58;65.43;101936.13;5039619;28;20194;-65
2021/05/28 07:18:56;;;;;;;13.53;10.10;;;;;;;12.51;65.99;101934.25;5054051;28;20449;-64
2021/05/28 07:21:26;;;;;;;12.47;9.30;;;;;;;12.60;65.65;101932.72;5055162;28;20193;-63
2021/05/28 07:23:51;;;;;;;10.80;9.70;;;;;;;12.54;65.46;101931.69;5057227;28;20231;-65
2021/05/28 07:26:17;;;;;;;13.60;9.97;;;;;;;13.46;63.69;101928.22;5048260;28;20467;-64
2021/05/28 07:28:42;;;;;;;13.67;8.67;;;;;;;13.39;62.33;101923.72;5055786;28;20197;-63
2021/05/28 07:31:08;;;;;;;9.90;8.70;;;;;;;13.32;63.36;101927.06;5055198;28;20540;-65
2021/05/28 07:33:33;;;;;;;11.53;8.53;;;;;;;12.98;63.54;101936.94;5041009;28;20219;-64
2021/05/28 07:35:58;;;;;;;13.07;8.47;;;;;;;13.40;63.90;101930.75;5044429;28;20185;-65
2021/05/28 07:38:24;;;;;;;14.70;9.00;;;;;;;13.76;62.70;101918.19;5048987;28;20190;-66
2021/05/28 07:40:49;;;;;;;9.53;8.20;;;;;;;14.03;60.97;101933.50;5048746;28;20507;-65
2021/05/28 07:43:15;;;;;;;12.13;9.10;;;;;;;13.85;61.38;101933.19;5060686;28;20220;-65
2021/05/28 07:45:41;;;;;;;15.80;9.83;;;;;;;13.51;61.94;101941.41;5049073;28;20247;-64
2021/05/28 07:48:07;;;;;;;13.93;8.90;;;;;;;14.17;60.41;101933.69;5059643;28;20174;-64
2021/05/28 07:50:45;;;;;;;10.57;8.87;;;;;;;13.79;61.34;101932.25;5053199;28;20682;-64
2021/05/28 07:53:22;;;;;;;12.70;9.50;;;;;;;13.85;61.27;101927.97;5052755;28;20189;-64
2021/05/28 07:55:48;;;;;;;11.77;9.63;;;;;;;13.69;61.06;101927.69;5057322;28;20469;-65
2021/05/28 07:58:14;;;;;;;11.87;8.93;;;;;;;13.48;61.83;101926.50;5041977;28;20421;-65
2021/05/28 08:00:40;;;;;;;10.30;8.90;;;;;;;13.35;62.42;101931.47;5059428;28;20409;-65
2021/05/28 08:03:05;;;;;;;13.03;9.07;;;;;;;14.01;61.37;101929.94;5060742;28;20420;-64
2021/05/28 08:05:30;;;;;;;11.20;8.80;;;;;;;15.23;56.69;101914.78;5043362;28;20213;-65
2021/05/28 08:07:56;;;;;;;10.17;7.77;;;;;;;15.82;55.04;101914.41;5042305;28;20196;-65
2021/05/28 08:10:22;;;;;;;13.90;8.17;;;;;;;15.64;55.89;101917.78;5047725;28;20185;-65
2021/05/28 08:12:48;;;;;;;9.93;8.93;;;;;;;15.18;57.13;101922.66;5043704;28;20217;-65
2021/05/28 08:15:14;;;;;;;10.37;8.77;;;;;;;14.99;57.14;101930.34;5055911;28;20448;-64
2021/05/28 08:17:39;;;;;;;13.30;8.50;;;;;;;15.44;56.49;101933.38;5058909;28;20406;-64
2021/05/28 08:20:06;;;;;;;13.07;10.23;;;;;;;15.67;55.45;101935.31;5059581;28;20185;-65
2021/05/28 08:22:31;;;;;;;13.17;9.03;;;;;;;15.03;57.50;101932.97;5047116;28;20192;-67
2021/05/28 08:24:56;;;;;;;11.50;8.90;;;;;;;14.89;58.76;101940.72;5045337;28;20810;-64
2021/05/28 08:27:21;;;;;;;14.37;9.30;;;;;;;15.20;58.06;101938.41;5046561;28;20618;-64
2021/05/28 08:29:47;;;;;;;11.30;9.43;;;;;;;15.70;56.08;101935.34;5042740;28;20194;-64
2021/05/28 08:32:12;;;;;;;13.23;10.10;;;;;;;15.47;55.74;101935.16;5039562;28;20189;-64
2021/05/28 08:34:37;;;;;;;12.70;10.23;;;;;;;15.51;56.03;101938.69;5039799;28;20174;-65
2021/05/28 08:37:03;;;;;;;13.33;10.37;;;;;;;15.29;56.01;101930.63;5045361;28;20228;-64
2021/05/28 08:39:28;;;;;;;11.07;9.97;;;;;;;17.96;49.59;101930.78;5049995;28;20182;-64
2021/05/28 08:41:54;;;;;;;12.27;9.77;;;;;;;18.29;47.67;101926.28;5059573;28;20512;-64
2021/05/28 08:44:24;;;;;;;12.60;9.90;;;;;;;17.93;48.71;101923.75;5034057;28;20209;-65
2021/05/28 08:46:53;;;;;;;11.70;10.47;;;;;;;19.24;45.51;101924.03;5039396;28;20242;-65
2021/05/28 08:49:20;;;;;;;10.50;8.90;;;;;;;19.35;44.31;101930.16;5040335;28;20506;-65
2021/05/28 08:51:45;;;;;;;11.40;9.93;;;;;;;19.50;44.33;101926.50;5039750;28;20413;-66
2021/05/28 08:54:11;;;;;;;10.40;9.40;;;;;;;18.10;46.48;101930.75;5038910;28;20492;-66
2021/05/28 08:56:36;;;;;;;9.93;9.03;;;;;;;17.95;47.79;101936.94;5041925;28;20190;-66
2021/05/28 08:59:06;;;;;;;13.83;10.40;;;;;;;17.33;49.83;101936.94;5051079;28;20193;-65
2021/05/28 09:01:31;;;;;;;12.70;9.80;;;;;;;16.53;52.34;101937.59;5059014;28;20188;-66
2021/05/28 09:03:58;;;;;;;16.57;10.53;;;;;;;17.36;51.04;101929.06;5059106;28;20419;-66
2021/05/28 09:06:24;;;;;;;12.77;10.67;;;;;;;17.02;51.36;101934.25;5059364;28;20204;-66
2021/05/28 09:08:49;;;;;;;11.70;10.70;;;;;;;17.11;50.20;101925.50;5042912;28;20468;-66
2021/05/28 09:11:19;;;;;;;14.90;10.43;;;;;;;17.12;50.20;101933.41;5049905;28;20198;-66
2021/05/28 09:13:52;;;;;;;12.47;9.70;;;;;;;16.77;51.30;101931.53;5038956;28;20535;-65
2021/05/28 09:16:19;;;;;;;10.23;9.20;;;;;;;16.08;53.67;101947.03;5044695;28;20434;-65
2021/05/28 09:18:52;;;;;;;10.97;9.43;;;;;;;16.45;52.87;101937.59;5038541;28;20432;-66
2021/05/28 09:21:23;;;;;;;11.10;9.10;;;;;;;16.35;52.28;101945.44;5049212;28;20450;-64
2021/05/28 09:23:48;;;;;;;10.73;9.07;;;;;;;16.76;51.61;101944.69;5061091;28;20482;-65
2021/05/28 09:26:14;;;;;;;8.50;7.80;;;;;;;16.10;53.78;101946.16;5043705;28;20484;-66
2021/05/28 09:28:48;;;;;;;11.57;9.10;;;;;;;16.28;53.82;101949.78;5068816;28;20180;-65
2021/05/28 09:31:17;;;;;;;11.87;10.10;;;;;;;16.86;52.57;101941.22;5042019;28;20182;-65
2021/05/28 09:33:47;;;;;;;11.90;9.60;;;;;;;17.29;50.49;101943.09;5038234;28;20415;-65
2021/05/28 09:36:17;;;;;;;9.73;8.80;;;;;;;17.44;50.49;101948.38;5038469;28;20455;-64
2021/05/28 09:38:56;;;;;;;14.40;9.30;;;;;;;17.07;51.15;101950.97;5038027;28;20726;-65
2021/05/28 09:41:35;;;;;;;10.73;9.53;;;;;;;17.46;50.24;101946.63;5038723;28;20418;-65
2021/05/28 09:44:12;;;;;;;12.37;9.93;;;;;;;17.38;50.45;101958.91;5040769;28;20530;-66
2021/05/28 09:46:38;;;;;;;13.03;9.60;;;;;;;17.89;49.33;101952.72;5037896;28;20478;-65
2021/05/28 09:49:08;;;;;;;12.00;8.63;;;;;;;17.02;51.66;101950.06;5038790;28;20907;-65
2021/05/28 09:51:34;;;;;;;14.90;8.53;;;;;;;16.89;51.95;101953.53;5038482;28;20444;-64
2021/05/28 09:54:12;;;;;;;12.93;8.77;;;;;;;17.06;51.52;101958.88;5039668;28;20425;-64
2021/05/28 09:56:38;;;;;;;13.40;8.67;;;;;;;16.89;52.84;101958.81;5054935;28;20243;-65
2021/05/28 09:59:07;;;;;;;9.30;8.20;;;;;;;16.72;53.47;101956.97;5052773;28;20477;-65
2021/05/28 10:01:35;;;;;;;12.83;9.60;;;;;;;17.03;52.69;101954.47;5053050;28;20178;-65
2021/05/28 10:04:04;;;;;;;11.07;9.90;;;;;;;16.57;54.76;101956.91;5037296;28;20445;-66
2021/05/28 10:06:31;;;;;;;12.00;9.00;;;;;;;17.05;52.38;101959.72;5037821;28;20519;-65
2021/05/28 10:08:58;;;;;;;11.10;8.83;;;;;;;17.65;51.26;101947.50;5045430;28;20452;-65
2021/05/28 10:11:27;;;;;;;12.07;9.27;;;;;;;18.27;49.06;101947.41;5037014;28;20498;-65
2021/05/28 10:13:54;;;;;;;9.80;8.27;;;;;;;19.48;46.83;101937.09;5040829;28;20483;-65
2021/05/28 10:16:21;;;;;;;10.57;8.60;;;;;;;19.34;46.72;101928.38;5054913;28;20452;-65
2021/05/28 10:18:48;;;;;;;9.67;8.10;;;;;;;19.07;47.13;101940.91;5048079;28;20472;-65
2021/05/28 10:21:14;;;;;;;8.40;7.20;;;;;;;17.98;49.85;101944.84;5040354;28;20447;-66
2021/05/28 10:23:39;;;;;;;11.73;7.67;;;;;;;17.64;51.50;101951.03;5038091;28;20409;-65
2021/05/28 10:26:04;;;;;;;12.63;7.83;;;;;;;16.88;52.62;101957.91;5037293;28;20245;-65
2021/05/28 10:28:32;;;;;;;10.67;8.37;;;;;;;16.74;53.13;101949.97;5054985;28;20234;-66
2021/05/28 10:30:57;;;;;;;13.43;8.07;;;;;;;17.15;52.43;101950.97;5060310;28;20280;-64
2021/05/28 10:33:28;;;;;;;11.87;9.10;;;;;;;17.21;51.91;101955.38;5049204;28;20787;-65
2021/05/28 10:35:56;;;;;;;12.40;9.97;;;;;;;16.97;52.44;101942.16;5040133;28;20194;-65
2021/05/28 10:38:31;;;;;;;15.43;9.13;;;;;;;17.88;50.75;101932.53;5037986;28;20878;-68
2021/05/28 10:40:59;;;;;;;12.57;8.37;;;;;;;17.81;50.99;101937.81;5045856;28;20915;-66
2021/05/28 10:43:26;;;;;;;9.40;7.53;;;;;;;18.14;50.28;101938.69;5039228;28;20436;-66
2021/05/28 10:45:57;;;;;;;11.20;7.93;;;;;;;18.72;48.61;101933.16;5037644;28;20465;-66
2021/05/28 10:48:43;;;;;;;9.20;7.80;;;;;;;19.15;47.36;101925.88;5037270;28;20417;-65
2021/05/28 10:51:16;;;;;;;9.10;7.80;;;;;;;19.59;46.30;101928.16;5037425;28;20486;-66
2021/05/28 10:54:01;;;;;;;10.80;8.43;;;;;;;19.71;45.59;101922.75;5039780;28;20722;-66
2021/05/28 10:56:29;;;;;;;11.17;8.23;;;;;;;19.80;45.12;101921.81;5037444;28;20695;-66
2021/05/28 10:58:55;;;;;;;9.27;8.33;;;;;;;19.85;44.71;101920.91;5036180;28;20452;-67
2021/05/28 11:01:32;;;;;;;9.60;7.40;;;;;;;19.53;45.26;101924.69;5046032;28;20871;-66
2021/05/28 11:03:58;;;;;;;9.80;7.67;;;;;;;20.31;44.05;101923.91;5049943;28;20840;-65
2021/05/28 11:06:24;;;;;;;9.60;7.67;;;;;;;19.44;45.77;101918.59;5041204;28;20468;-66
2021/05/28 11:08:51;;;;;;;31.27;27.90;;;;;;;19.02;46.59;101922.44;5040897;28;20834;-66
2021/05/28 11:11:35;;;;;;;10.90;7.60;;;;;;;18.25;49.00;101922.81;5041452;28;20197;-66
2021/05/28 11:14:02;;;;;;;10.60;7.83;;;;;;;18.52;49.13;101929.75;5049685;28;20468;-67